createdAt,value
2022-09-04T00:02:51.112Z,2.70
2022-09-04T00:05:56.432Z,3.07
2022-09-04T00:09:23.017Z,2.70
2022-09-04T00:12:33.360Z,3.10
2022-09-04T00:16:06.559Z,3.03
2022-09-04T00:19:31.023Z,3.20
2022-09-04T00:23:12.620Z,2.77
2022-09-04T00:26:26.787Z,2.97
2022-09-04T00:29:54.179Z,2.80
2022-09-04T00:33:12.419Z,3.28
2022-09-04T00:36:17.348Z,3.47
2022-09-04T00:39:28.939Z,3.20
2022-09-04T00:42:47.172Z,3.17
2022-09-04T00:46:20.785Z,3.60
2022-09-04T00:49:42.155Z,3.30
2022-09-04T00:53:17.835Z,3.53
2022-09-04T00:56:45.335Z,3.67
2022-09-04T01:00:15.832Z,3.45
2022-09-04T01:03:40.506Z,3.70
2022-09-04T01:06:48.953Z,4.03
2022-09-04T01:09:57.778Z,3.80
2022-09-04T01:13:36.294Z,3.73
2022-09-04T01:16:49.690Z,3.45
2022-09-04T01:20:09.975Z,3.47
2022-09-04T01:23:30.367Z,3.92
2022-09-04T01:26:43.363Z,4.18
2022-09-04T01:30:01.798Z,3.43
2022-09-04T01:33:09.213Z,3.45
2022-09-04T01:36:17.150Z,3.42
2022-09-04T01:39:22.277Z,2.90
2022-09-04T01:42:37.812Z,2.70
2022-09-04T01:45:59.080Z,2.80
2022-09-04T01:49:23.297Z,2.50
2022-09-04T01:52:49.404Z,2.58
2022-09-04T01:56:15.624Z,2.45
2022-09-04T01:59:36.854Z,2.22
2022-09-04T02:02:47.829Z,2.23
2022-09-04T02:06:04.984Z,1.90
2022-09-04T02:09:19.550Z,2.17
2022-09-04T02:13:00.962Z,2.05
2022-09-04T02:16:30.992Z,2.10
2022-09-04T02:19:46.790Z,2.10
2022-09-04T02:22:58.584Z,1.80
2022-09-04T02:26:17.820Z,2.00
2022-09-04T02:29:29.983Z,1.65
2022-09-04T02:32:43.036Z,1.90
2022-09-04T02:36:14.980Z,1.73
2022-09-04T02:39:34.911Z,1.42
2022-09-04T02:42:43.590Z,1.40
2022-09-04T02:46:09.459Z,1.52
2022-09-04T02:49:21.316Z,1.50
2022-09-04T02:52:33.532Z,1.40
2022-09-04T02:56:10.382Z,1.10
2022-09-04T02:59:50.512Z,1.10
2022-09-04T03:03:01.903Z,1.42
2022-09-04T03:06:14.644Z,1.20
2022-09-04T03:09:42.307Z,1.60
2022-09-04T03:12:48.938Z,1.20
2022-09-04T03:16:02.227Z,1.48
2022-09-04T03:19:16.580Z,1.37
2022-09-04T03:22:28.479Z,1.40
2022-09-04T03:25:52.012Z,1.27
2022-09-04T03:29:13.074Z,1.10
2022-09-04T03:32:21.851Z,1.17
2022-09-04T03:35:33.603Z,1.17
2022-09-04T03:39:11.063Z,1.40
2022-09-04T03:42:46.646Z,1.10
2022-09-04T03:46:10.610Z,1.00
2022-09-04T03:49:44.267Z,1.20
2022-09-04T03:53:13.885Z,1.10
2022-09-04T03:56:47.171Z,1.10
2022-09-04T04:00:11.769Z,1.10
2022-09-04T04:03:51.636Z,1.20
2022-09-04T04:07:19.068Z,1.20
2022-09-04T04:10:33.452Z,1.42
2022-09-04T04:13:55.189Z,1.23
2022-09-04T04:17:27.084Z,0.97
2022-09-04T04:20:44.608Z,1.00
2022-09-04T04:24:04.293Z,1.40
2022-09-04T04:27:13.104Z,1.23
2022-09-04T04:30:19.038Z,1.20
2022-09-04T04:33:48.270Z,1.20
2022-09-04T04:37:04.185Z,1.00
2022-09-04T04:40:48.897Z,1.08
2022-09-04T04:44:48.186Z,1.00
2022-09-04T04:48:03.343Z,1.37
2022-09-04T04:51:39.377Z,0.90
2022-09-04T04:55:06.265Z,1.05
2022-09-04T04:58:30.808Z,1.00
2022-09-04T05:01:39.671Z,1.00
2022-09-04T05:04:48.597Z,1.10
2022-09-04T05:07:53.583Z,1.00
2022-09-04T05:11:30.438Z,1.30
2022-09-04T05:14:46.310Z,1.20
2022-09-04T05:18:01.816Z,1.05
2022-09-04T05:21:07.666Z,1.33
2022-09-04T05:24:25.328Z,1.13
2022-09-04T05:27:39.657Z,1.17
2022-09-04T05:31:01.096Z,0.98
2022-09-04T05:34:19.143Z,1.20
2022-09-04T05:37:34.065Z,1.12
2022-09-04T05:40:58.612Z,0.70
2022-09-04T05:44:16.824Z,1.00
2022-09-04T05:47:31.679Z,1.08
2022-09-04T05:50:45.243Z,1.10
2022-09-04T05:54:01.444Z,1.10
2022-09-04T05:57:37.389Z,1.20
2022-09-04T06:01:01.938Z,1.20
2022-09-04T06:04:26.225Z,1.08
2022-09-04T06:07:37.793Z,1.45
2022-09-04T06:11:17.192Z,1.05
2022-09-04T06:14:41.148Z,1.00
2022-09-04T06:18:00.514Z,1.27
2022-09-04T06:21:39.149Z,1.10
2022-09-04T06:24:44.715Z,1.23
2022-09-04T06:27:56.296Z,1.35
2022-09-04T06:31:05.430Z,1.20
2022-09-04T06:34:14.107Z,1.30
2022-09-04T06:37:56.486Z,1.80
2022-09-04T06:41:25.973Z,1.40
2022-09-04T06:44:50.975Z,1.37
2022-09-04T06:48:13.265Z,1.60
2022-09-04T06:51:19.109Z,1.30
2022-09-04T06:54:46.938Z,1.48
2022-09-04T06:58:09.077Z,1.20
2022-09-04T07:01:20.254Z,1.40
2022-09-04T07:04:51.593Z,1.37
2022-09-04T07:08:31.716Z,1.27
2022-09-04T07:11:52.899Z,1.58
2022-09-04T07:15:18.039Z,1.52
2022-09-04T07:18:54.440Z,1.60
2022-09-04T07:22:25.052Z,1.47
2022-09-04T07:26:06.712Z,1.40
2022-09-04T07:29:16.231Z,1.45
2022-09-04T07:32:34.406Z,1.37
2022-09-04T07:35:45.214Z,1.60
2022-09-04T07:38:52.544Z,1.60
2022-09-04T07:42:16.479Z,1.58
2022-09-04T07:45:23.588Z,1.60
2022-09-04T07:48:43.914Z,1.70
2022-09-04T07:51:58.985Z,1.60
2022-09-04T07:55:19.689Z,1.70
2022-09-04T07:58:34.801Z,1.80
2022-09-04T08:02:01.491Z,1.87
2022-09-04T08:05:16.803Z,1.77
2022-09-04T08:08:59.681Z,1.20
2022-09-04T08:12:16.365Z,1.80
2022-09-04T08:15:25.314Z,1.65
2022-09-04T08:18:40.882Z,1.80
2022-09-04T08:21:45.078Z,1.65
2022-09-04T08:24:49.641Z,1.90
2022-09-04T08:28:08.404Z,2.03
2022-09-04T08:31:31.064Z,1.90
2022-09-04T08:35:10.829Z,2.10
2022-09-04T08:38:40.926Z,2.28
2022-09-04T08:41:53.845Z,2.17
2022-09-04T08:45:44.553Z,2.23
2022-09-04T08:49:11.840Z,2.15
2022-09-04T08:52:50.802Z,2.83
2022-09-04T08:56:18.747Z,2.78
2022-09-04T08:59:59.219Z,2.17
2022-09-04T09:03:31.066Z,2.20
2022-09-04T09:07:02.411Z,2.53
2022-09-04T09:10:29.465Z,2.25
2022-09-04T09:13:48.246Z,2.62
2022-09-04T09:17:09.447Z,2.42
2022-09-04T09:20:28.191Z,2.57
2022-09-04T09:23:57.094Z,2.35
2022-09-04T09:27:15.744Z,2.20
2022-09-04T09:30:20.995Z,2.50
2022-09-04T09:33:24.011Z,2.30
2022-09-04T09:36:45.122Z,2.50
2022-09-04T09:39:57.757Z,2.40
2022-09-04T09:43:20.720Z,2.20
2022-09-04T09:46:42.251Z,2.47
2022-09-04T09:49:47.855Z,2.22
2022-09-04T09:53:17.138Z,2.50
2022-09-04T09:56:25.806Z,2.53
2022-09-04T10:00:02.361Z,2.78
2022-09-04T10:03:49.512Z,2.30
2022-09-04T10:07:19.851Z,2.40
2022-09-04T10:10:56.378Z,2.53
2022-09-04T10:14:41.159Z,2.87
2022-09-04T10:18:05.277Z,2.15
2022-09-04T10:21:42.166Z,2.53
2022-09-04T10:25:06.111Z,2.62
2022-09-04T10:28:09.004Z,2.50
2022-09-04T10:31:26.999Z,2.78
2022-09-04T10:34:41.993Z,2.95
2022-09-04T10:37:53.466Z,2.47
2022-09-04T10:41:17.357Z,2.70
2022-09-04T10:44:44.837Z,2.90
2022-09-04T10:48:15.124Z,2.42
2022-09-04T10:51:42.851Z,2.60
2022-09-04T10:55:31.518Z,2.78
2022-09-04T10:58:55.485Z,10.30
2022-09-04T11:02:16.853Z,4.77
2022-09-04T11:05:37.953Z,2.85
2022-09-04T11:08:52.967Z,2.50
2022-09-04T11:12:36.168Z,2.37
2022-09-04T11:15:53.015Z,2.47
2022-09-04T11:19:14.239Z,4.17
2022-09-04T11:22:41.851Z,10.30
2022-09-04T11:26:15.514Z,6.40
2022-09-04T11:29:32.517Z,2.60
2022-09-04T11:33:09.343Z,3.20
2022-09-04T11:36:30.408Z,2.50
2022-09-04T11:39:56.188Z,2.17
2022-09-04T11:43:37.443Z,2.40
2022-09-04T11:46:51.084Z,2.42
2022-09-04T11:50:09.562Z,2.65
2022-09-04T11:54:00.412Z,2.60
2022-09-04T11:57:18.272Z,2.70
2022-09-04T12:00:21.201Z,2.00
2022-09-04T12:03:41.912Z,2.30
2022-09-04T12:07:18.722Z,2.17
2022-09-04T12:10:38.291Z,2.17
2022-09-04T12:14:07.370Z,2.40
2022-09-04T12:17:23.039Z,2.40
2022-09-04T12:20:45.632Z,2.30
2022-09-04T12:24:13.000Z,3.00
2022-09-04T12:27:24.927Z,3.00
2022-09-04T12:31:21.942Z,2.17
2022-09-04T12:34:45.711Z,2.20
2022-09-04T12:37:48.632Z,2.20
2022-09-04T12:40:59.478Z,3.40
2022-09-04T12:44:13.405Z,2.57
2022-09-04T12:47:22.182Z,5.60
2022-09-04T12:50:39.367Z,2.67
2022-09-04T12:53:54.337Z,2.40
2022-09-04T12:56:57.288Z,2.40
2022-09-04T13:00:32.091Z,3.30
2022-09-04T13:03:46.922Z,2.20
2022-09-04T13:07:21.290Z,2.33
2022-09-04T13:10:53.403Z,1.90
2022-09-04T13:14:22.355Z,2.30
2022-09-04T13:17:35.049Z,2.10
2022-09-04T13:20:50.953Z,2.30
2022-09-04T13:24:09.190Z,2.55
2022-09-04T13:27:28.469Z,2.10
2022-09-04T13:30:32.302Z,2.70
2022-09-04T13:33:59.006Z,2.50
2022-09-04T13:37:07.906Z,2.70
2022-09-04T13:40:44.941Z,2.80
2022-09-04T13:44:12.401Z,2.85
2022-09-04T13:47:21.249Z,2.20
2022-09-04T13:50:35.472Z,2.70
2022-09-04T13:54:24.921Z,2.80
2022-09-04T13:57:30.514Z,2.60
2022-09-04T14:00:35.176Z,2.25
2022-09-04T14:03:46.269Z,2.30
2022-09-04T14:06:48.909Z,2.23
2022-09-04T14:09:54.468Z,2.30
2022-09-04T14:13:02.808Z,2.83
2022-09-04T14:16:09.106Z,2.17
2022-09-04T14:19:32.545Z,2.40
2022-09-04T14:22:57.791Z,3.60
2022-09-04T14:26:16.172Z,5.55
2022-09-04T14:29:44.255Z,2.80
2022-09-04T14:33:21.809Z,2.40
2022-09-04T14:36:55.217Z,2.72
2022-09-04T14:40:16.314Z,2.67
2022-09-04T14:43:33.425Z,2.83
2022-09-04T14:46:51.621Z,4.00
2022-09-04T14:50:01.339Z,2.78
2022-09-04T14:53:06.584Z,2.50
2022-09-04T14:56:16.754Z,3.77
2022-09-04T14:59:44.190Z,2.97
2022-09-04T15:03:07.729Z,2.55
2022-09-04T15:06:24.805Z,3.08
2022-09-04T15:09:41.341Z,2.12
2022-09-04T15:12:52.522Z,2.50
2022-09-04T15:16:28.419Z,3.12
2022-09-04T15:19:50.164Z,2.50
2022-09-04T15:22:59.059Z,2.22
2022-09-04T15:26:20.212Z,2.95
2022-09-04T15:29:32.122Z,4.40
2022-09-04T15:32:39.881Z,3.03
2022-09-04T15:35:42.921Z,2.83
2022-09-04T15:38:55.421Z,2.12
2022-09-04T15:41:59.554Z,2.10
2022-09-04T15:45:11.891Z,2.13
2022-09-04T15:48:53.944Z,1.98
2022-09-04T15:52:10.553Z,2.03
2022-09-04T15:55:34.947Z,2.20
2022-09-04T15:58:53.240Z,2.10
2022-09-04T16:02:04.081Z,2.10
2022-09-04T16:05:24.019Z,1.90
2022-09-04T16:08:45.116Z,2.15
2022-09-04T16:12:14.805Z,2.03
2022-09-04T16:15:25.306Z,2.75
2022-09-04T16:18:50.597Z,2.10
2022-09-04T16:22:07.651Z,1.83
2022-09-04T16:25:24.125Z,2.22
2022-09-04T16:28:33.257Z,2.12
2022-09-04T16:31:36.917Z,2.20
2022-09-04T16:34:53.205Z,2.20
2022-09-04T16:38:09.834Z,2.40
2022-09-04T16:41:18.204Z,1.98
2022-09-04T16:44:37.420Z,2.00
2022-09-04T16:47:48.255Z,2.35
2022-09-04T16:51:09.851Z,2.10
2022-09-04T16:54:36.122Z,2.15
2022-09-04T16:58:02.561Z,2.35
2022-09-04T17:01:30.245Z,2.22
2022-09-04T17:04:44.612Z,2.25
2022-09-04T17:07:59.580Z,2.20
2022-09-04T17:11:09.922Z,2.87
2022-09-04T17:14:21.978Z,2.30
2022-09-04T17:17:30.872Z,2.25
2022-09-04T17:24:23.374Z,2.37
2022-09-04T17:28:59.337Z,2.57
2022-09-04T17:29:14.871Z,2.37
2022-09-04T17:31:54.168Z,2.80
2022-09-04T17:40:38.422Z,2.60
2022-09-04T17:41:34.930Z,2.65
2022-09-04T17:42:38.175Z,2.57
2022-09-04T17:45:53.592Z,2.78
2022-09-04T17:48:56.335Z,2.70
2022-09-04T17:52:01.476Z,3.00
2022-09-04T17:55:10.309Z,2.50
2022-09-04T17:58:31.291Z,2.43
2022-09-04T18:02:01.412Z,2.70
2022-09-04T18:05:27.486Z,2.80
2022-09-04T18:08:33.542Z,3.10
2022-09-04T18:12:00.470Z,2.67
2022-09-04T18:15:33.709Z,3.00
2022-09-04T18:18:58.108Z,3.30
2022-09-04T18:22:26.132Z,2.60
2022-09-04T18:25:30.918Z,2.80
2022-09-04T18:28:48.634Z,2.80
2022-09-04T18:37:06.422Z,3.00
2022-09-04T18:37:18.127Z,2.90
2022-09-04T18:39:35.992Z,2.85
2022-09-04T18:50:28.504Z,3.10
2022-09-04T18:50:31.399Z,3.12
2022-09-04T18:50:32.230Z,2.70
2022-09-04T18:53:26.518Z,2.90
2022-09-04T18:56:33.188Z,2.40
2022-09-04T18:59:38.042Z,2.65
2022-09-04T19:02:53.335Z,2.40
2022-09-04T19:05:59.882Z,2.63
2022-09-04T19:09:11.199Z,2.30
2022-09-04T19:12:17.863Z,2.50
2022-09-04T19:15:29.342Z,2.47
2022-09-04T19:18:45.907Z,2.30
2022-09-04T19:22:05.575Z,2.47
2022-09-04T19:25:17.973Z,2.72
2022-09-04T19:28:52.369Z,2.33
2022-09-04T19:32:07.248Z,2.30
2022-09-04T19:35:11.965Z,2.70
2022-09-04T19:42:20.129Z,2.27
2022-09-04T19:46:00.355Z,2.42
2022-09-04T19:46:17.180Z,2.95
2022-09-04T19:50:32.774Z,2.47
2022-09-04T19:53:31.771Z,2.30
2022-09-04T19:56:13.188Z,2.40
2022-09-04T19:59:30.734Z,2.67
2022-09-04T20:03:01.366Z,2.83
2022-09-04T20:06:20.816Z,2.45
2022-09-04T20:09:33.143Z,2.50
2022-09-04T20:12:43.103Z,2.23
2022-09-04T20:16:13.186Z,2.35
2022-09-04T20:19:37.575Z,2.60
2022-09-04T20:22:54.186Z,2.50
2022-09-04T20:26:06.956Z,2.40
2022-09-04T20:29:27.006Z,2.57
2022-09-04T20:32:56.073Z,2.37
2022-09-04T20:36:10.421Z,2.22
2022-09-04T20:39:18.399Z,2.60
2022-09-04T20:42:28.358Z,2.60
2022-09-04T20:50:43.971Z,2.40
2022-09-04T20:52:51.809Z,2.50
2022-09-04T20:54:03.850Z,2.97
2022-09-04T21:03:06.439Z,2.92
2022-09-04T21:03:20.594Z,2.72
2022-09-04T21:04:42.754Z,2.60
2022-09-04T21:08:00.745Z,2.50
2022-09-04T21:11:41.285Z,2.85
2022-09-04T21:14:48.576Z,2.70
2022-09-04T21:18:31.369Z,2.78
2022-09-04T21:21:52.897Z,2.80
2022-09-04T21:25:23.496Z,2.22
2022-09-04T21:28:30.881Z,2.90
2022-09-04T21:32:08.746Z,2.90
2022-09-04T21:35:32.406Z,2.80
2022-09-04T21:38:47.942Z,2.63
2022-09-04T21:42:38.089Z,2.50
2022-09-04T21:45:58.952Z,3.00
2022-09-04T21:49:41.354Z,2.65
2022-09-04T21:53:05.327Z,2.25
2022-09-04T22:01:25.430Z,2.50
2022-09-04T22:02:43.255Z,2.90
2022-09-04T22:03:43.191Z,2.92
2022-09-04T22:08:24.059Z,2.50
2022-09-04T22:13:31.819Z,2.95
2022-09-04T22:14:06.710Z,2.53
2022-09-04T22:17:34.570Z,2.62
2022-09-04T22:20:43.328Z,2.90
2022-09-04T22:23:58.590Z,2.45
2022-09-04T22:27:58.627Z,2.60
2022-09-04T22:31:20.318Z,2.53
2022-09-04T22:34:23.061Z,3.25
2022-09-04T22:37:25.849Z,3.60
2022-09-04T22:40:56.948Z,3.37
2022-09-04T22:44:15.569Z,3.50
2022-09-04T22:47:26.310Z,3.17
2022-09-04T22:50:48.947Z,2.80
2022-09-04T22:54:22.690Z,3.00
2022-09-04T22:57:43.905Z,2.25
2022-09-04T23:01:12.499Z,2.90
2022-09-04T23:04:36.641Z,2.77
2022-09-04T23:11:47.993Z,3.12
2022-09-04T23:13:54.156Z,2.55
2022-09-04T23:15:09.141Z,2.97
2022-09-04T23:20:18.946Z,2.80
2022-09-04T23:26:32.869Z,3.30
2022-09-04T23:26:44.298Z,2.75
2022-09-04T23:29:11.498Z,2.72
2022-09-04T23:32:25.138Z,2.60
2022-09-04T23:35:46.279Z,2.90
2022-09-04T23:39:33.826Z,2.37
2022-09-04T23:43:03.766Z,3.08
2022-09-04T23:46:19.224Z,2.70
2022-09-04T23:49:38.090Z,2.95
2022-09-04T23:52:49.384Z,3.00
2022-09-04T23:56:19.401Z,3.00
2022-09-04T23:59:37.560Z,3.03
